Terminal Aerodrome Forecast
Issued by NWS

Home | Current Version | Previous Version | Text Only | Print | Product List | Glossary On
Versions: 1 2 3 4 5 6 7 8 9 10 11 12 13 14 15 16 17 18 19 20 21 22 23 24 25 26 27 28 29 30 31
000
FTUS41 KGYX 021127
TAFLEB
TAF
KLEB 021127Z 0212/0312 VRB03KT P6SM -DZ SCT008 BKN015 OVC025
      TEMPO 0212/0215 5SM -SHRA SCT015 OVC025
     FM021500 01004KT P6SM BKN025 OVC040
     FM021700 36004KT P6SM SCT025 BKN040 OVC070
     FM030100 00000KT P6SM BKN025 OVC040=

USA.gov is the U.S. government's official web portal to all federal, state and local government web resources and services.